createdAt,value
2022-09-21T11:21:56.276Z,101049.40
2022-09-21T11:24:46.864Z,101053.13
2022-09-21T11:27:36.360Z,101056.93
2022-09-21T11:30:09.694Z,101060.13
2022-09-21T11:33:11.102Z,101057.77
2022-09-21T11:35:47.616Z,101054.20
2022-09-21T11:38:37.620Z,101060.85
2022-09-21T11:41:36.103Z,101056.74
2022-09-21T11:44:17.591Z,101057.13
2022-09-21T11:47:10.404Z,101059.63
2022-09-21T11:50:29.848Z,101063.04
2022-09-21T11:53:34.735Z,101065.44
2022-09-21T11:56:33.626Z,101068.75
2022-09-21T11:59:42.660Z,101066.53
2022-09-21T12:02:44.910Z,101068.78
2022-09-21T12:05:29.796Z,101064.45
2022-09-21T12:08:07.032Z,101069.00
2022-09-21T12:10:42.830Z,101067.88
2022-09-21T12:13:27.907Z,101066.12
2022-09-21T12:16:22.039Z,101065.55
2022-09-21T12:19:19.488Z,101065.41
2022-09-21T12:21:52.939Z,101063.48
2022-09-21T12:24:32.117Z,101061.65
2022-09-21T12:27:11.835Z,101068.19
2022-09-21T12:29:48.141Z,101072.38
2022-09-21T12:32:54.116Z,101072.73
2022-09-21T12:35:41.151Z,101069.59
2022-09-21T12:38:09.606Z,101068.30
2022-09-21T12:40:50.094Z,101070.95
2022-09-21T12:43:43.513Z,101072.73
2022-09-21T12:46:24.217Z,101070.97
2022-09-21T12:48:53.330Z,101072.34
2022-09-21T12:51:37.244Z,101070.30
2022-09-21T12:54:43.327Z,101070.77
2022-09-21T12:57:53.556Z,101072.45
2022-09-21T13:00:22.421Z,101073.73
2022-09-21T13:03:12.721Z,101075.13
2022-09-21T13:05:51.209Z,101076.66
2022-09-21T13:08:28.016Z,101075.58
2022-09-21T13:11:01.438Z,101075.16
2022-09-21T13:13:35.727Z,101080.16
2022-09-21T13:16:06.665Z,101076.30
2022-09-21T13:18:38.865Z,101079.23
2022-09-21T13:21:26.534Z,101075.76
2022-09-21T13:24:01.574Z,101069.70
2022-09-21T13:26:50.608Z,101069.67
2022-09-21T13:29:22.577Z,101068.38
2022-09-21T13:32:04.522Z,101074.48
2022-09-21T13:34:41.424Z,101070.56
2022-09-21T13:37:15.854Z,101071.19
2022-09-21T13:40:02.310Z,101071.80
2022-09-21T13:42:30.991Z,101068.44
2022-09-21T13:45:15.720Z,101064.33
2022-09-21T13:47:50.287Z,101069.20
2022-09-21T13:50:27.356Z,101069.58
2022-09-21T13:52:59.916Z,101074.13
2022-09-21T13:55:32.564Z,101069.55
2022-09-21T13:58:05.032Z,101069.64
2022-09-21T14:00:41.370Z,101068.11
2022-09-21T14:03:28.889Z,101070.72
2022-09-21T14:06:09.250Z,101066.58
2022-09-21T14:08:49.377Z,101071.55
2022-09-21T14:11:28.635Z,101070.19
2022-09-21T14:14:12.187Z,101069.36
2022-09-21T14:16:44.744Z,101068.45
2022-09-21T14:19:19.333Z,101070.11
2022-09-21T14:22:09.122Z,101081.48
2022-09-21T14:24:44.895Z,101077.95
2022-09-21T14:27:46.354Z,101074.16
2022-09-21T14:30:20.741Z,101070.58
2022-09-21T14:33:02.370Z,101072.39
2022-09-21T14:35:34.682Z,101067.39
2022-09-21T14:38:11.007Z,101069.48
2022-09-21T14:40:47.307Z,101069.67
2022-09-21T14:43:22.697Z,101068.46
2022-09-21T14:46:04.105Z,101069.41
2022-09-21T14:48:50.489Z,101072.52
2022-09-21T14:51:27.216Z,101066.71
2022-09-21T14:54:17.936Z,101070.08
2022-09-21T14:57:00.474Z,101071.36
2022-09-21T14:59:50.025Z,101074.86
2022-09-21T15:02:44.771Z,101073.62
2022-09-21T15:05:35.211Z,101075.02
2022-09-21T15:09:00.523Z,101073.77
2022-09-21T15:11:34.382Z,101073.72
2022-09-21T15:14:35.222Z,101072.64
2022-09-21T15:17:26.295Z,101078.38
2022-09-21T15:20:00.903Z,101079.55
2022-09-21T15:22:29.379Z,101079.46
2022-09-21T15:25:02.930Z,101081.71
2022-09-21T15:27:35.976Z,101081.92
2022-09-21T15:30:06.543Z,101081.59
2022-09-21T15:32:39.634Z,101083.09
2022-09-21T15:35:22.940Z,101086.06
2022-09-21T15:37:52.494Z,101083.63
2022-09-21T15:40:27.563Z,101084.84
2022-09-21T15:43:07.005Z,101084.91
2022-09-21T15:45:52.120Z,101088.94
2022-09-21T15:48:33.485Z,101087.02
2022-09-21T15:51:39.793Z,101087.54
2022-09-21T15:54:27.194Z,101089.55
2022-09-21T15:56:55.798Z,101090.07
2022-09-21T15:59:24.480Z,101085.73
2022-09-21T16:01:56.924Z,101088.40
2022-09-21T16:04:27.431Z,101090.89
2022-09-21T16:07:08.018Z,101096.02
2022-09-21T16:09:42.721Z,101097.98
2022-09-21T16:12:26.686Z,101095.35
2022-09-21T16:15:17.326Z,101096.91
2022-09-21T16:18:03.342Z,101092.34
2022-09-21T16:20:48.516Z,101092.71
2022-09-21T16:23:26.940Z,101093.33
2022-09-21T16:26:01.543Z,101097.63
2022-09-21T16:28:39.493Z,101099.72
2022-09-21T16:31:22.700Z,101105.91
2022-09-21T16:33:54.646Z,101107.20
2022-09-21T16:36:25.787Z,101116.10
2022-09-21T16:38:54.429Z,101113.87
2022-09-21T16:41:25.545Z,101111.34
2022-09-21T16:43:57.528Z,101114.71
2022-09-21T16:46:27.602Z,101114.86
2022-09-21T16:48:56.178Z,101117.79
2022-09-21T16:51:27.469Z,101125.14
2022-09-21T16:53:56.681Z,101124.63
2022-09-21T16:56:25.662Z,101123.90
2022-09-21T16:58:53.998Z,101128.05
2022-09-21T17:01:22.501Z,101126.41
2022-09-21T17:03:51.239Z,101130.33
2022-09-21T17:06:21.825Z,101131.09
2022-09-21T17:08:50.445Z,101133.79
2022-09-21T17:11:20.275Z,101135.59
2022-09-21T17:13:49.910Z,101135.50
2022-09-21T17:16:20.321Z,101137.30
2022-09-21T17:18:49.713Z,101140.30
2022-09-21T17:21:18.025Z,101146.25
2022-09-21T17:23:46.539Z,101144.88
2022-09-21T17:26:18.039Z,101148.02
2022-09-21T17:28:46.871Z,101147.70
2022-09-21T17:31:16.814Z,101151.31
2022-09-21T17:33:47.982Z,101153.22
2022-09-21T17:36:18.339Z,101154.55
2022-09-21T17:38:46.836Z,101151.58
2022-09-21T17:41:20.622Z,101152.23
2022-09-21T17:44:08.256Z,101153.71
2022-09-21T17:46:59.131Z,101153.52
2022-09-21T17:49:27.748Z,101155.25
2022-09-21T17:52:15.650Z,101154.88
2022-09-21T17:54:44.541Z,101155.05
2022-09-21T17:57:45.998Z,101158.27
2022-09-21T18:00:20.945Z,101162.46
2022-09-21T18:02:50.838Z,101160.80
2022-09-21T18:05:26.556Z,101164.36
2022-09-21T18:07:56.000Z,101163.52
2022-09-21T18:10:26.544Z,101163.74
2022-09-21T18:13:12.210Z,101163.46
2022-09-21T18:15:57.533Z,101158.13
2022-09-21T18:18:31.659Z,101157.89
2022-09-21T18:21:04.377Z,101158.40
2022-09-21T18:23:41.853Z,101160.59
2022-09-21T18:26:17.008Z,101162.44
2022-09-21T18:28:58.354Z,101170.05
2022-09-21T18:31:42.406Z,101168.78
2022-09-21T18:34:35.802Z,101166.89
2022-09-21T18:37:26.452Z,101167.38
2022-09-21T18:40:01.136Z,101162.29
2022-09-21T18:42:29.607Z,101161.16
2022-09-21T18:45:05.859Z,101159.48
2022-09-21T18:47:57.596Z,101155.92
2022-09-21T18:51:00.486Z,101164.16
2022-09-21T18:53:38.999Z,101165.13
2022-09-21T18:56:08.789Z,101161.20
2022-09-21T18:58:38.815Z,101164.97
2022-09-21T19:01:07.729Z,101161.92
2022-09-21T19:03:37.928Z,101160.98
2022-09-21T19:06:29.818Z,101158.60
2022-09-21T19:09:38.402Z,101159.15
2022-09-21T19:12:29.475Z,101158.20
2022-09-21T19:15:48.711Z,101167.13
2022-09-21T19:18:45.415Z,101163.59
2022-09-21T19:21:42.087Z,101165.05
2022-09-21T19:24:25.830Z,101164.38
2022-09-21T19:27:18.446Z,101166.13
2022-09-21T19:29:52.607Z,101166.98
2022-09-21T19:32:45.206Z,101169.77
2022-09-21T19:35:19.519Z,101168.38
2022-09-21T19:37:49.663Z,101167.16
2022-09-21T19:40:21.289Z,101168.54
2022-09-21T19:43:19.110Z,101168.59
2022-09-21T19:46:06.387Z,101168.80
2022-09-21T19:48:43.625Z,101166.27
2022-09-21T19:51:30.893Z,101169.61
2022-09-21T19:54:20.252Z,101170.35
2022-09-21T19:57:29.601Z,101168.29
2022-09-21T19:59:58.636Z,101165.90
2022-09-21T20:02:40.738Z,101166.83
2022-09-21T20:05:30.883Z,101168.09
2022-09-21T20:08:11.097Z,101169.17
2022-09-21T20:10:51.832Z,101170.10
2022-09-21T20:13:48.140Z,101170.98
2022-09-21T20:16:46.273Z,101163.02
2022-09-21T20:19:47.309Z,101165.09
2022-09-21T20:22:18.774Z,101163.84
2022-09-21T20:24:54.972Z,101161.35
2022-09-21T20:27:34.948Z,101160.95
2022-09-21T20:30:07.450Z,101159.32
2022-09-21T20:32:38.077Z,101155.97
2022-09-21T20:35:25.147Z,101152.08
2022-09-21T20:37:56.483Z,101151.17
2022-09-21T20:40:29.070Z,101152.35
2022-09-21T20:42:59.124Z,101151.27
2022-09-21T20:45:27.936Z,101146.88
2022-09-21T20:48:13.350Z,101147.89
2022-09-21T20:50:47.830Z,101150.13
2022-09-21T20:53:17.588Z,101157.36
2022-09-21T20:55:53.749Z,101154.90
2022-09-21T20:58:23.151Z,101153.64
2022-09-21T21:00:55.243Z,101156.35
2022-09-21T21:03:26.908Z,101152.66
2022-09-21T21:06:07.758Z,101150.92
2022-09-21T21:08:36.529Z,101148.64
2022-09-21T21:11:05.624Z,101150.52
2022-09-21T21:13:34.115Z,101151.88
2022-09-21T21:16:09.481Z,101151.52
2022-09-21T21:18:41.208Z,101152.89
2022-09-21T21:21:10.681Z,101150.61
2022-09-21T21:23:57.521Z,101150.95
2022-09-21T21:26:43.820Z,101158.24
2022-09-21T21:29:14.656Z,101158.95
2022-09-21T21:31:43.566Z,101157.71
2022-09-21T21:34:11.975Z,101158.59
2022-09-21T21:36:40.628Z,101156.82
2022-09-21T21:39:10.953Z,101156.63
2022-09-21T21:41:39.394Z,101153.47
2022-09-21T21:44:07.833Z,101153.77
2022-09-21T21:46:36.684Z,101154.60
2022-09-21T21:49:05.675Z,101153.23
2022-09-21T21:51:34.566Z,101155.34
2022-09-21T21:54:03.181Z,101154.30
2022-09-21T21:56:31.676Z,101154.13
2022-09-21T21:58:59.884Z,101152.02
2022-09-21T22:01:30.329Z,101147.86
2022-09-21T22:04:01.555Z,101150.16
2022-09-21T22:06:33.072Z,101148.80
2022-09-21T22:09:03.230Z,101148.34
2022-09-21T22:11:32.053Z,101148.02
2022-09-21T22:14:02.153Z,101149.91
2022-09-21T22:16:32.716Z,101151.11
2022-09-21T22:19:04.768Z,101150.43
2022-09-21T22:21:39.237Z,101146.30
2022-09-21T22:24:13.599Z,101144.77
2022-09-21T22:26:44.534Z,101146.52
2022-09-21T22:29:14.290Z,101147.75
2022-09-21T22:31:45.460Z,101144.81
2022-09-21T22:34:15.021Z,101146.59
2022-09-21T22:36:44.083Z,101147.20
2022-09-21T22:39:13.066Z,101151.73
2022-09-21T22:41:43.056Z,101150.88
2022-09-21T22:44:11.617Z,101153.11
2022-09-21T22:46:40.524Z,101150.57
2022-09-21T22:49:09.089Z,101152.70
2022-09-21T22:51:38.298Z,101150.46
2022-09-21T22:54:07.371Z,101151.16
2022-09-21T22:56:35.945Z,101150.48
2022-09-21T22:59:05.359Z,101151.86
2022-09-21T23:01:37.399Z,101153.61
2022-09-21T23:04:09.324Z,101152.05
2022-09-21T23:06:40.495Z,101152.92
2022-09-21T23:09:13.745Z,101152.92
2022-09-21T23:11:47.368Z,101149.63
2022-09-21T23:14:16.904Z,101150.34
2022-09-21T23:16:45.840Z,101147.76
2022-09-21T23:19:17.995Z,101144.98
2022-09-21T23:21:49.794Z,101144.09
2022-09-21T23:24:19.873Z,101144.80
2022-09-21T23:26:51.665Z,101143.06
2022-09-21T23:29:20.404Z,101146.34
2022-09-21T23:31:48.700Z,101150.30
2022-09-21T23:34:17.446Z,101150.59
2022-09-21T23:36:46.229Z,101151.09
2022-09-21T23:39:15.741Z,101154.37
2022-09-21T23:41:44.867Z,101153.66
2022-09-21T23:44:13.618Z,101151.55
2022-09-21T23:46:42.870Z,101152.08
2022-09-21T23:49:11.809Z,101149.67
2022-09-21T23:51:41.006Z,101152.81
2022-09-21T23:54:09.355Z,101147.09
2022-09-21T23:56:38.282Z,101150.11
2022-09-21T23:59:06.894Z,101148.73
